sensor_id;sensor_type;location;lat;lon;timestamp;P1;durP1;ratioP1;P2;durP2;ratioP2
39442;SDS011;25147;52.142;9.960;2023-11-19T00:00:21;0.88;;;0.88;;
39442;SDS011;25147;52.142;9.960;2023-11-19T00:02:46;0.70;;;0.70;;
39442;SDS011;25147;52.142;9.960;2023-11-19T00:05:14;1.02;;;0.93;;
39442;SDS011;25147;52.142;9.960;2023-11-19T00:07:40;2.13;;;1.00;;
39442;SDS011;25147;52.142;9.960;2023-11-19T00:10:08;1.00;;;0.80;;
39442;SDS011;25147;52.142;9.960;2023-11-19T00:12:46;1.80;;;0.90;;
39442;SDS011;25147;52.142;9.960;2023-11-19T00:15:15;0.85;;;0.85;;
39442;SDS011;25147;52.142;9.960;2023-11-19T00:17:44;0.95;;;0.85;;
39442;SDS011;25147;52.142;9.960;2023-11-19T00:20:12;1.52;;;0.88;;
39442;SDS011;25147;52.142;9.960;2023-11-19T00:22:40;1.33;;;1.15;;
39442;SDS011;25147;52.142;9.960;2023-11-19T00:25:08;1.10;;;1.00;;
39442;SDS011;25147;52.142;9.960;2023-11-19T00:27:35;1.70;;;0.90;;
39442;SDS011;25147;52.142;9.960;2023-11-19T00:30:04;0.70;;;0.70;;
39442;SDS011;25147;52.142;9.960;2023-11-19T00:32:32;0.80;;;0.80;;
39442;SDS011;25147;52.142;9.960;2023-11-19T00:34:59;1.45;;;0.73;;
39442;SDS011;25147;52.142;9.960;2023-11-19T00:37:25;0.90;;;0.90;;
39442;SDS011;25147;52.142;9.960;2023-11-19T00:39:52;0.95;;;0.95;;
39442;SDS011;25147;52.142;9.960;2023-11-19T00:42:21;0.80;;;0.80;;
39442;SDS011;25147;52.142;9.960;2023-11-19T00:44:48;0.90;;;0.90;;
39442;SDS011;25147;52.142;9.960;2023-11-19T00:47:16;1.10;;;1.02;;
39442;SDS011;25147;52.142;9.960;2023-11-19T00:49:45;3.58;;;1.55;;
39442;SDS011;25147;52.142;9.960;2023-11-19T00:52:13;0.80;;;0.80;;
39442;SDS011;25147;52.142;9.960;2023-11-19T00:54:40;0.88;;;0.88;;
39442;SDS011;25147;52.142;9.960;2023-11-19T00:57:07;0.82;;;0.82;;
39442;SDS011;25147;52.142;9.960;2023-11-19T00:59:34;0.80;;;0.80;;
39442;SDS011;25147;52.142;9.960;2023-11-19T01:02:01;0.90;;;0.90;;
39442;SDS011;25147;52.142;9.960;2023-11-19T01:04:30;0.90;;;0.90;;
39442;SDS011;25147;52.142;9.960;2023-11-19T01:07:01;1.00;;;1.00;;
39442;SDS011;25147;52.142;9.960;2023-11-19T01:09:29;1.05;;;1.00;;
39442;SDS011;25147;52.142;9.960;2023-11-19T01:11:57;1.27;;;1.20;;
39442;SDS011;25147;52.142;9.960;2023-11-19T01:14:25;1.75;;;0.90;;
39442;SDS011;25147;52.142;9.960;2023-11-19T01:16:52;1.02;;;1.00;;
39442;SDS011;25147;52.142;9.960;2023-11-19T01:19:20;0.98;;;0.90;;
39442;SDS011;25147;52.142;9.960;2023-11-19T01:21:49;0.85;;;0.85;;
39442;SDS011;25147;52.142;9.960;2023-11-19T01:24:16;1.23;;;1.13;;
39442;SDS011;25147;52.142;9.960;2023-11-19T01:26:43;1.23;;;1.13;;
39442;SDS011;25147;52.142;9.960;2023-11-19T01:29:10;1.13;;;1.02;;
39442;SDS011;25147;52.142;9.960;2023-11-19T01:31:38;0.90;;;0.90;;
39442;SDS011;25147;52.142;9.960;2023-11-19T01:34:05;0.80;;;0.80;;
39442;SDS011;25147;52.142;9.960;2023-11-19T01:36:32;1.33;;;1.10;;
39442;SDS011;25147;52.142;9.960;2023-11-19T01:39:01;1.02;;;0.98;;
39442;SDS011;25147;52.142;9.960;2023-11-19T01:41:29;1.27;;;1.17;;
39442;SDS011;25147;52.142;9.960;2023-11-19T01:43:56;1.10;;;1.10;;
39442;SDS011;25147;52.142;9.960;2023-11-19T01:46:23;1.42;;;1.33;;
39442;SDS011;25147;52.142;9.960;2023-11-19T01:48:51;2.75;;;1.08;;
39442;SDS011;25147;52.142;9.960;2023-11-19T01:51:19;1.85;;;1.08;;
39442;SDS011;25147;52.142;9.960;2023-11-19T01:53:47;1.00;;;1.00;;
39442;SDS011;25147;52.142;9.960;2023-11-19T01:56:17;1.10;;;1.00;;
39442;SDS011;25147;52.142;9.960;2023-11-19T01:58:44;1.50;;;0.80;;
39442;SDS011;25147;52.142;9.960;2023-11-19T02:01:12;1.48;;;1.00;;
39442;SDS011;25147;52.142;9.960;2023-11-19T02:03:40;1.10;;;1.00;;
39442;SDS011;25147;52.142;9.960;2023-11-19T02:06:07;0.80;;;0.80;;
39442;SDS011;25147;52.142;9.960;2023-11-19T02:08:35;0.80;;;0.80;;
39442;SDS011;25147;52.142;9.960;2023-11-19T02:11:02;0.85;;;0.85;;
39442;SDS011;25147;52.142;9.960;2023-11-19T02:13:31;0.82;;;0.82;;
39442;SDS011;25147;52.142;9.960;2023-11-19T02:15:58;0.80;;;0.80;;
39442;SDS011;25147;52.142;9.960;2023-11-19T02:18:27;0.70;;;0.70;;
39442;SDS011;25147;52.142;9.960;2023-11-19T02:20:54;2.67;;;1.13;;
39442;SDS011;25147;52.142;9.960;2023-11-19T02:23:21;1.05;;;1.00;;
39442;SDS011;25147;52.142;9.960;2023-11-19T02:25:56;1.77;;;1.00;;
39442;SDS011;25147;52.142;9.960;2023-11-19T02:28:32;1.05;;;1.05;;
39442;SDS011;25147;52.142;9.960;2023-11-19T02:30:59;3.63;;;1.35;;
39442;SDS011;25147;52.142;9.960;2023-11-19T02:33:26;2.08;;;1.00;;
39442;SDS011;25147;52.142;9.960;2023-11-19T02:35:53;1.45;;;1.35;;
39442;SDS011;25147;52.142;9.960;2023-11-19T02:38:20;0.93;;;0.90;;
39442;SDS011;25147;52.142;9.960;2023-11-19T02:40:47;0.88;;;0.88;;
39442;SDS011;25147;52.142;9.960;2023-11-19T02:43:14;0.90;;;0.80;;
39442;SDS011;25147;52.142;9.960;2023-11-19T02:45:42;0.80;;;0.80;;
39442;SDS011;25147;52.142;9.960;2023-11-19T02:48:11;0.70;;;0.70;;
39442;SDS011;25147;52.142;9.960;2023-11-19T02:50:41;1.52;;;0.98;;
39442;SDS011;25147;52.142;9.960;2023-11-19T02:53:08;0.70;;;0.70;;
39442;SDS011;25147;52.142;9.960;2023-11-19T02:55:35;0.68;;;0.60;;
39442;SDS011;25147;52.142;9.960;2023-11-19T02:58:03;1.30;;;0.73;;
39442;SDS011;25147;52.142;9.960;2023-11-19T03:00:39;0.50;;;0.50;;
39442;SDS011;25147;52.142;9.960;2023-11-19T03:03:15;1.02;;;0.60;;
39442;SDS011;25147;52.142;9.960;2023-11-19T03:05:45;0.73;;;0.73;;
39442;SDS011;25147;52.142;9.960;2023-11-19T03:08:13;0.60;;;0.60;;
39442;SDS011;25147;52.142;9.960;2023-11-19T03:10:41;1.27;;;0.68;;
39442;SDS011;25147;52.142;9.960;2023-11-19T03:13:09;0.80;;;0.80;;
39442;SDS011;25147;52.142;9.960;2023-11-19T03:15:39;1.33;;;0.98;;
39442;SDS011;25147;52.142;9.960;2023-11-19T03:18:07;0.93;;;0.70;;
39442;SDS011;25147;52.142;9.960;2023-11-19T03:20:35;1.52;;;0.75;;
39442;SDS011;25147;52.142;9.960;2023-11-19T03:23:02;1.42;;;0.90;;
39442;SDS011;25147;52.142;9.960;2023-11-19T03:25:29;1.33;;;0.80;;
39442;SDS011;25147;52.142;9.960;2023-11-19T03:27:59;2.75;;;1.00;;
39442;SDS011;25147;52.142;9.960;2023-11-19T03:30:27;1.05;;;1.00;;
39442;SDS011;25147;52.142;9.960;2023-11-19T03:32:54;0.90;;;0.90;;
39442;SDS011;25147;52.142;9.960;2023-11-19T03:35:21;0.90;;;0.90;;
39442;SDS011;25147;52.142;9.960;2023-11-19T03:37:49;0.90;;;0.90;;
39442;SDS011;25147;52.142;9.960;2023-11-19T03:40:16;1.88;;;0.90;;
39442;SDS011;25147;52.142;9.960;2023-11-19T03:42:44;1.83;;;1.10;;
39442;SDS011;25147;52.142;9.960;2023-11-19T03:45:11;0.68;;;0.68;;
39442;SDS011;25147;52.142;9.960;2023-11-19T03:47:38;0.88;;;0.80;;
39442;SDS011;25147;52.142;9.960;2023-11-19T03:50:06;0.80;;;0.80;;
39442;SDS011;25147;52.142;9.960;2023-11-19T03:52:34;1.77;;;1.00;;
39442;SDS011;25147;52.142;9.960;2023-11-19T03:55:02;1.05;;;1.05;;
39442;SDS011;25147;52.142;9.960;2023-11-19T03:57:30;0.80;;;0.80;;
39442;SDS011;25147;52.142;9.960;2023-11-19T03:59:57;1.20;;;1.10;;
39442;SDS011;25147;52.142;9.960;2023-11-19T04:02:25;0.90;;;0.90;;
39442;SDS011;25147;52.142;9.960;2023-11-19T04:04:54;0.85;;;0.85;;
39442;SDS011;25147;52.142;9.960;2023-11-19T04:07:21;0.82;;;0.82;;
39442;SDS011;25147;52.142;9.960;2023-11-19T04:09:48;1.20;;;1.10;;
39442;SDS011;25147;52.142;9.960;2023-11-19T04:12:17;1.13;;;1.13;;
39442;SDS011;25147;52.142;9.960;2023-11-19T04:14:45;1.73;;;1.10;;
39442;SDS011;25147;52.142;9.960;2023-11-19T04:17:11;1.30;;;1.20;;
39442;SDS011;25147;52.142;9.960;2023-11-19T04:19:38;1.88;;;1.13;;
39442;SDS011;25147;52.142;9.960;2023-11-19T04:22:06;3.33;;;1.23;;
39442;SDS011;25147;52.142;9.960;2023-11-19T04:24:33;1.08;;;1.00;;
39442;SDS011;25147;52.142;9.960;2023-11-19T04:27:00;2.83;;;1.40;;
39442;SDS011;25147;52.142;9.960;2023-11-19T04:29:29;1.65;;;1.55;;
39442;SDS011;25147;52.142;9.960;2023-11-19T04:31:56;2.22;;;1.60;;
39442;SDS011;25147;52.142;9.960;2023-11-19T04:34:23;1.95;;;1.65;;
39442;SDS011;25147;52.142;9.960;2023-11-19T04:36:51;1.58;;;1.48;;
39442;SDS011;25147;52.142;9.960;2023-11-19T04:39:17;1.48;;;1.38;;
39442;SDS011;25147;52.142;9.960;2023-11-19T04:41:48;2.15;;;1.52;;
39442;SDS011;25147;52.142;9.960;2023-11-19T04:44:15;2.53;;;1.85;;
39442;SDS011;25147;52.142;9.960;2023-11-19T04:46:44;3.15;;;1.85;;
39442;SDS011;25147;52.142;9.960;2023-11-19T04:49:11;2.10;;;1.90;;
39442;SDS011;25147;52.142;9.960;2023-11-19T04:51:39;2.00;;;1.90;;
39442;SDS011;25147;52.142;9.960;2023-11-19T04:54:06;2.40;;;2.00;;
39442;SDS011;25147;52.142;9.960;2023-11-19T04:56:33;2.17;;;2.00;;
39442;SDS011;25147;52.142;9.960;2023-11-19T04:59:00;2.58;;;1.92;;
39442;SDS011;25147;52.142;9.960;2023-11-19T05:01:27;2.13;;;1.83;;
39442;SDS011;25147;52.142;9.960;2023-11-19T05:03:55;3.22;;;2.00;;
39442;SDS011;25147;52.142;9.960;2023-11-19T05:06:25;2.30;;;1.90;;
39442;SDS011;25147;52.142;9.960;2023-11-19T05:08:53;2.30;;;2.10;;
39442;SDS011;25147;52.142;9.960;2023-11-19T05:11:20;2.10;;;1.75;;
39442;SDS011;25147;52.142;9.960;2023-11-19T05:13:47;2.05;;;1.85;;
39442;SDS011;25147;52.142;9.960;2023-11-19T05:16:14;2.05;;;1.85;;
39442;SDS011;25147;52.142;9.960;2023-11-19T05:18:41;3.63;;;2.15;;
39442;SDS011;25147;52.142;9.960;2023-11-19T05:21:09;3.60;;;2.35;;
39442;SDS011;25147;52.142;9.960;2023-11-19T05:23:36;4.40;;;2.20;;
39442;SDS011;25147;52.142;9.960;2023-11-19T05:26:03;2.83;;;2.25;;
39442;SDS011;25147;52.142;9.960;2023-11-19T05:28:30;3.22;;;2.60;;
39442;SDS011;25147;52.142;9.960;2023-11-19T05:30:57;5.95;;;3.20;;
39442;SDS011;25147;52.142;9.960;2023-11-19T05:33:24;3.90;;;2.53;;
39442;SDS011;25147;52.142;9.960;2023-11-19T05:35:51;5.40;;;3.03;;
39442;SDS011;25147;52.142;9.960;2023-11-19T05:38:19;6.82;;;3.08;;
39442;SDS011;25147;52.142;9.960;2023-11-19T05:40:47;5.75;;;2.95;;
39442;SDS011;25147;52.142;9.960;2023-11-19T05:43:14;7.13;;;3.75;;
39442;SDS011;25147;52.142;9.960;2023-11-19T05:45:42;6.47;;;3.78;;
39442;SDS011;25147;52.142;9.960;2023-11-19T05:48:09;7.97;;;4.07;;
39442;SDS011;25147;52.142;9.960;2023-11-19T05:50:36;11.73;;;3.85;;
39442;SDS011;25147;52.142;9.960;2023-11-19T05:53:03;4.32;;;3.20;;
39442;SDS011;25147;52.142;9.960;2023-11-19T05:55:35;6.35;;;3.33;;
39442;SDS011;25147;52.142;9.960;2023-11-19T05:58:10;6.80;;;3.00;;
39442;SDS011;25147;52.142;9.960;2023-11-19T06:00:37;7.88;;;3.50;;
39442;SDS011;25147;52.142;9.960;2023-11-19T06:03:04;9.65;;;3.60;;
39442;SDS011;25147;52.142;9.960;2023-11-19T06:05:31;7.47;;;3.35;;
39442;SDS011;25147;52.142;9.960;2023-11-19T06:07:57;9.98;;;4.05;;
39442;SDS011;25147;52.142;9.960;2023-11-19T06:10:24;10.60;;;3.65;;
39442;SDS011;25147;52.142;9.960;2023-11-19T06:12:57;11.45;;;4.07;;
39442;SDS011;25147;52.142;9.960;2023-11-19T06:15:25;8.23;;;3.90;;
39442;SDS011;25147;52.142;9.960;2023-11-19T06:17:52;9.48;;;4.38;;
39442;SDS011;25147;52.142;9.960;2023-11-19T06:20:20;12.07;;;5.00;;
39442;SDS011;25147;52.142;9.960;2023-11-19T06:22:47;9.15;;;4.80;;
39442;SDS011;25147;52.142;9.960;2023-11-19T06:25:13;16.05;;;4.15;;
39442;SDS011;25147;52.142;9.960;2023-11-19T06:27:41;12.45;;;4.75;;
39442;SDS011;25147;52.142;9.960;2023-11-19T06:30:10;14.52;;;4.25;;
39442;SDS011;25147;52.142;9.960;2023-11-19T06:32:37;12.43;;;4.35;;
39442;SDS011;25147;52.142;9.960;2023-11-19T06:35:05;13.45;;;4.32;;
39442;SDS011;25147;52.142;9.960;2023-11-19T06:37:32;14.60;;;4.38;;
39442;SDS011;25147;52.142;9.960;2023-11-19T06:39:59;13.45;;;3.92;;
39442;SDS011;25147;52.142;9.960;2023-11-19T06:42:25;7.72;;;3.63;;
39442;SDS011;25147;52.142;9.960;2023-11-19T06:44:52;10.70;;;3.45;;
39442;SDS011;25147;52.142;9.960;2023-11-19T06:47:20;17.13;;;4.30;;
39442;SDS011;25147;52.142;9.960;2023-11-19T06:49:47;12.48;;;4.25;;
39442;SDS011;25147;52.142;9.960;2023-11-19T06:52:14;16.20;;;4.57;;
39442;SDS011;25147;52.142;9.960;2023-11-19T06:54:42;15.38;;;4.18;;
39442;SDS011;25147;52.142;9.960;2023-11-19T06:57:10;13.48;;;4.00;;
39442;SDS011;25147;52.142;9.960;2023-11-19T06:59:37;13.07;;;4.30;;
39442;SDS011;25147;52.142;9.960;2023-11-19T07:02:04;14.52;;;3.80;;
39442;SDS011;25147;52.142;9.960;2023-11-19T07:04:32;17.80;;;4.82;;
39442;SDS011;25147;52.142;9.960;2023-11-19T07:06:59;16.27;;;4.47;;
39442;SDS011;25147;52.142;9.960;2023-11-19T07:09:26;14.20;;;4.03;;
39442;SDS011;25147;52.142;9.960;2023-11-19T07:11:53;14.23;;;4.47;;
39442;SDS011;25147;52.142;9.960;2023-11-19T07:14:20;11.35;;;4.25;;
39442;SDS011;25147;52.142;9.960;2023-11-19T07:16:48;14.38;;;4.35;;
39442;SDS011;25147;52.142;9.960;2023-11-19T07:19:16;11.98;;;4.38;;
39442;SDS011;25147;52.142;9.960;2023-11-19T07:21:44;15.20;;;4.55;;
39442;SDS011;25147;52.142;9.960;2023-11-19T07:24:11;17.23;;;4.70;;
39442;SDS011;25147;52.142;9.960;2023-11-19T07:26:40;12.85;;;4.20;;
39442;SDS011;25147;52.142;9.960;2023-11-19T07:29:10;18.20;;;5.18;;
39442;SDS011;25147;52.142;9.960;2023-11-19T07:31:37;16.05;;;4.90;;
39442;SDS011;25147;52.142;9.960;2023-11-19T07:34:04;13.90;;;4.72;;
39442;SDS011;25147;52.142;9.960;2023-11-19T07:36:31;19.48;;;4.97;;
39442;SDS011;25147;52.142;9.960;2023-11-19T07:39:00;12.95;;;4.40;;
39442;SDS011;25147;52.142;9.960;2023-11-19T07:41:27;17.25;;;4.85;;
39442;SDS011;25147;52.142;9.960;2023-11-19T07:43:54;14.93;;;4.90;;
39442;SDS011;25147;52.142;9.960;2023-11-19T07:46:21;15.23;;;4.75;;
39442;SDS011;25147;52.142;9.960;2023-11-19T07:48:48;15.57;;;4.72;;
39442;SDS011;25147;52.142;9.960;2023-11-19T07:51:15;16.52;;;5.22;;
39442;SDS011;25147;52.142;9.960;2023-11-19T07:53:42;15.57;;;4.80;;
39442;SDS011;25147;52.142;9.960;2023-11-19T07:56:11;17.42;;;5.35;;
39442;SDS011;25147;52.142;9.960;2023-11-19T07:58:38;14.88;;;4.72;;
39442;SDS011;25147;52.142;9.960;2023-11-19T08:01:05;15.15;;;4.93;;
39442;SDS011;25147;52.142;9.960;2023-11-19T08:03:32;18.00;;;4.43;;
39442;SDS011;25147;52.142;9.960;2023-11-19T08:06:00;12.40;;;4.50;;
39442;SDS011;25147;52.142;9.960;2023-11-19T08:08:27;18.27;;;4.47;;
39442;SDS011;25147;52.142;9.960;2023-11-19T08:10:55;24.63;;;5.25;;
39442;SDS011;25147;52.142;9.960;2023-11-19T08:13:23;19.90;;;4.50;;
39442;SDS011;25147;52.142;9.960;2023-11-19T08:15:50;13.95;;;4.68;;
39442;SDS011;25147;52.142;9.960;2023-11-19T08:18:17;20.33;;;4.68;;
39442;SDS011;25147;52.142;9.960;2023-11-19T08:20:44;20.55;;;5.53;;
39442;SDS011;25147;52.142;9.960;2023-11-19T08:23:14;18.40;;;4.72;;
39442;SDS011;25147;52.142;9.960;2023-11-19T08:25:41;19.65;;;5.03;;
39442;SDS011;25147;52.142;9.960;2023-11-19T08:28:08;19.88;;;5.10;;
39442;SDS011;25147;52.142;9.960;2023-11-19T08:30:36;20.08;;;4.75;;
39442;SDS011;25147;52.142;9.960;2023-11-19T08:33:03;17.42;;;4.80;;
39442;SDS011;25147;52.142;9.960;2023-11-19T08:35:31;18.65;;;4.97;;
39442;SDS011;25147;52.142;9.960;2023-11-19T08:37:58;20.67;;;4.50;;
39442;SDS011;25147;52.142;9.960;2023-11-19T08:40:25;15.90;;;4.68;;
39442;SDS011;25147;52.142;9.960;2023-11-19T08:42:52;19.70;;;4.78;;
39442;SDS011;25147;52.142;9.960;2023-11-19T08:45:17;17.27;;;4.45;;
39442;SDS011;25147;52.142;9.960;2023-11-19T08:47:45;18.73;;;5.63;;
39442;SDS011;25147;52.142;9.960;2023-11-19T08:50:12;22.00;;;5.35;;
39442;SDS011;25147;52.142;9.960;2023-11-19T08:52:39;16.95;;;4.22;;
39442;SDS011;25147;52.142;9.960;2023-11-19T08:55:06;17.67;;;5.28;;
39442;SDS011;25147;52.142;9.960;2023-11-19T08:57:35;23.02;;;4.93;;
39442;SDS011;25147;52.142;9.960;2023-11-19T09:00:02;19.95;;;4.90;;
39442;SDS011;25147;52.142;9.960;2023-11-19T09:02:32;19.83;;;4.55;;
39442;SDS011;25147;52.142;9.960;2023-11-19T09:05:01;15.95;;;4.55;;
39442;SDS011;25147;52.142;9.960;2023-11-19T09:07:28;18.48;;;5.38;;
39442;SDS011;25147;52.142;9.960;2023-11-19T09:09:55;19.00;;;4.93;;
39442;SDS011;25147;52.142;9.960;2023-11-19T09:12:21;19.08;;;4.60;;
39442;SDS011;25147;52.142;9.960;2023-11-19T09:14:48;28.02;;;5.50;;
39442;SDS011;25147;52.142;9.960;2023-11-19T09:17:15;22.02;;;5.18;;
39442;SDS011;25147;52.142;9.960;2023-11-19T09:19:43;24.40;;;5.47;;
39442;SDS011;25147;52.142;9.960;2023-11-19T09:22:11;19.63;;;5.25;;
39442;SDS011;25147;52.142;9.960;2023-11-19T09:24:38;20.85;;;4.93;;
39442;SDS011;25147;52.142;9.960;2023-11-19T09:27:05;18.23;;;4.65;;
39442;SDS011;25147;52.142;9.960;2023-11-19T09:29:32;16.92;;;4.28;;
39442;SDS011;25147;52.142;9.960;2023-11-19T09:31:59;22.23;;;5.15;;
39442;SDS011;25147;52.142;9.960;2023-11-19T09:34:25;15.40;;;5.00;;
39442;SDS011;25147;52.142;9.960;2023-11-19T09:36:53;14.10;;;4.35;;
39442;SDS011;25147;52.142;9.960;2023-11-19T09:39:21;21.33;;;5.50;;
39442;SDS011;25147;52.142;9.960;2023-11-19T09:41:48;17.42;;;4.95;;
39442;SDS011;25147;52.142;9.960;2023-11-19T09:44:15;22.00;;;4.97;;
39442;SDS011;25147;52.142;9.960;2023-11-19T09:46:43;19.02;;;5.18;;
39442;SDS011;25147;52.142;9.960;2023-11-19T09:49:11;19.63;;;5.05;;
39442;SDS011;25147;52.142;9.960;2023-11-19T09:51:39;19.27;;;4.47;;
39442;SDS011;25147;52.142;9.960;2023-11-19T09:54:07;23.88;;;4.90;;
39442;SDS011;25147;52.142;9.960;2023-11-19T09:56:36;17.95;;;4.30;;
39442;SDS011;25147;52.142;9.960;2023-11-19T09:59:05;18.98;;;4.80;;
39442;SDS011;25147;52.142;9.960;2023-11-19T10:01:31;18.35;;;4.55;;
39442;SDS011;25147;52.142;9.960;2023-11-19T10:04:01;20.55;;;5.00;;
39442;SDS011;25147;52.142;9.960;2023-11-19T10:06:28;15.73;;;4.25;;
39442;SDS011;25147;52.142;9.960;2023-11-19T10:08:55;20.85;;;4.82;;
39442;SDS011;25147;52.142;9.960;2023-11-19T10:11:22;13.73;;;3.83;;
39442;SDS011;25147;52.142;9.960;2023-11-19T10:13:51;15.52;;;4.10;;
39442;SDS011;25147;52.142;9.960;2023-11-19T10:16:18;18.25;;;4.32;;
39442;SDS011;25147;52.142;9.960;2023-11-19T10:18:45;21.10;;;4.95;;
39442;SDS011;25147;52.142;9.960;2023-11-19T10:21:14;21.00;;;4.88;;
39442;SDS011;25147;52.142;9.960;2023-11-19T10:23:47;12.70;;;4.15;;
39442;SDS011;25147;52.142;9.960;2023-11-19T10:26:15;17.33;;;4.10;;
39442;SDS011;25147;52.142;9.960;2023-11-19T10:28:43;17.75;;;4.55;;
39442;SDS011;25147;52.142;9.960;2023-11-19T10:31:12;19.30;;;4.53;;
39442;SDS011;25147;52.142;9.960;2023-11-19T10:33:39;16.42;;;4.28;;
39442;SDS011;25147;52.142;9.960;2023-11-19T10:36:06;21.92;;;6.15;;
39442;SDS011;25147;52.142;9.960;2023-11-19T10:38:33;23.10;;;4.90;;
39442;SDS011;25147;52.142;9.960;2023-11-19T10:41:00;15.05;;;5.03;;
39442;SDS011;25147;52.142;9.960;2023-11-19T10:43:27;21.52;;;5.70;;
39442;SDS011;25147;52.142;9.960;2023-11-19T10:45:54;25.20;;;5.47;;
39442;SDS011;25147;52.142;9.960;2023-11-19T10:48:36;21.15;;;5.43;;
39442;SDS011;25147;52.142;9.960;2023-11-19T10:51:06;21.88;;;5.68;;
39442;SDS011;25147;52.142;9.960;2023-11-19T10:53:36;21.65;;;5.45;;
39442;SDS011;25147;52.142;9.960;2023-11-19T10:56:04;26.02;;;6.50;;
39442;SDS011;25147;52.142;9.960;2023-11-19T10:58:34;22.80;;;7.00;;
39442;SDS011;25147;52.142;9.960;2023-11-19T11:01:03;24.95;;;6.00;;
39442;SDS011;25147;52.142;9.960;2023-11-19T11:03:39;20.70;;;5.45;;
39442;SDS011;25147;52.142;9.960;2023-11-19T11:06:07;19.77;;;5.38;;
39442;SDS011;25147;52.142;9.960;2023-11-19T11:08:36;20.90;;;4.80;;
39442;SDS011;25147;52.142;9.960;2023-11-19T11:11:04;20.58;;;6.20;;
39442;SDS011;25147;52.142;9.960;2023-11-19T11:13:33;25.02;;;5.57;;
39442;SDS011;25147;52.142;9.960;2023-11-19T11:16:03;24.80;;;6.13;;
39442;SDS011;25147;52.142;9.960;2023-11-19T11:18:33;21.45;;;5.65;;
39442;SDS011;25147;52.142;9.960;2023-11-19T11:21:02;19.33;;;5.05;;
39442;SDS011;25147;52.142;9.960;2023-11-19T11:23:41;21.25;;;5.38;;
39442;SDS011;25147;52.142;9.960;2023-11-19T11:29:30;18.38;;;4.97;;
39442;SDS011;25147;52.142;9.960;2023-11-19T11:32:06;22.95;;;5.00;;
39442;SDS011;25147;52.142;9.960;2023-11-19T11:37:58;25.48;;;5.82;;
39442;SDS011;25147;52.142;9.960;2023-11-19T11:40:28;21.63;;;4.80;;
39442;SDS011;25147;52.142;9.960;2023-11-19T11:42:55;23.98;;;5.18;;
39442;SDS011;25147;52.142;9.960;2023-11-19T11:45:34;23.60;;;5.05;;
39442;SDS011;25147;52.142;9.960;2023-11-19T11:48:06;23.27;;;5.68;;
39442;SDS011;25147;52.142;9.960;2023-11-19T11:50:36;25.63;;;5.60;;
39442;SDS011;25147;52.142;9.960;2023-11-19T11:53:20;17.95;;;4.70;;
39442;SDS011;25147;52.142;9.960;2023-11-19T11:55:56;18.38;;;5.80;;
39442;SDS011;25147;52.142;9.960;2023-11-19T11:58:26;27.38;;;5.32;;
39442;SDS011;25147;52.142;9.960;2023-11-19T12:00:57;22.65;;;5.30;;
39442;SDS011;25147;52.142;9.960;2023-11-19T12:03:26;24.30;;;5.75;;
39442;SDS011;25147;52.142;9.960;2023-11-19T12:05:54;26.70;;;5.40;;
39442;SDS011;25147;52.142;9.960;2023-11-19T12:08:25;26.00;;;5.60;;
39442;SDS011;25147;52.142;9.960;2023-11-19T12:10:54;26.67;;;5.75;;
39442;SDS011;25147;52.142;9.960;2023-11-19T12:13:24;27.50;;;5.20;;
39442;SDS011;25147;52.142;9.960;2023-11-19T12:16:07;23.88;;;5.20;;
39442;SDS011;25147;52.142;9.960;2023-11-19T12:18:34;18.27;;;5.43;;
39442;SDS011;25147;52.142;9.960;2023-11-19T12:21:01;19.15;;;4.97;;
39442;SDS011;25147;52.142;9.960;2023-11-19T12:23:32;19.42;;;4.88;;
39442;SDS011;25147;52.142;9.960;2023-11-19T12:25:59;17.13;;;4.80;;
39442;SDS011;25147;52.142;9.960;2023-11-19T12:28:26;23.58;;;5.20;;
39442;SDS011;25147;52.142;9.960;2023-11-19T12:30:53;25.90;;;4.97;;
39442;SDS011;25147;52.142;9.960;2023-11-19T12:33:20;23.77;;;5.18;;
39442;SDS011;25147;52.142;9.960;2023-11-19T12:35:48;25.63;;;5.65;;
39442;SDS011;25147;52.142;9.960;2023-11-19T12:38:18;23.77;;;5.60;;
39442;SDS011;25147;52.142;9.960;2023-11-19T12:40:47;24.65;;;4.65;;
39442;SDS011;25147;52.142;9.960;2023-11-19T12:43:21;19.48;;;4.80;;
39442;SDS011;25147;52.142;9.960;2023-11-19T12:45:48;18.90;;;4.63;;
39442;SDS011;25147;52.142;9.960;2023-11-19T12:48:15;22.65;;;5.00;;
39442;SDS011;25147;52.142;9.960;2023-11-19T12:50:52;16.15;;;5.07;;
39442;SDS011;25147;52.142;9.960;2023-11-19T12:53:20;20.65;;;4.97;;
39442;SDS011;25147;52.142;9.960;2023-11-19T12:55:48;17.67;;;4.00;;
39442;SDS011;25147;52.142;9.960;2023-11-19T12:58:28;19.65;;;4.55;;
39442;SDS011;25147;52.142;9.960;2023-11-19T13:01:01;19.45;;;4.70;;
39442;SDS011;25147;52.142;9.960;2023-11-19T13:03:29;15.48;;;4.10;;
39442;SDS011;25147;52.142;9.960;2023-11-19T13:06:01;12.93;;;3.50;;
39442;SDS011;25147;52.142;9.960;2023-11-19T13:08:35;16.58;;;4.68;;
39442;SDS011;25147;52.142;9.960;2023-11-19T13:11:04;20.63;;;4.07;;
39442;SDS011;25147;52.142;9.960;2023-11-19T13:13:32;22.48;;;4.53;;
39442;SDS011;25147;52.142;9.960;2023-11-19T13:16:01;18.80;;;4.80;;
39442;SDS011;25147;52.142;9.960;2023-11-19T13:18:30;17.33;;;4.13;;
39442;SDS011;25147;52.142;9.960;2023-11-19T13:20:57;12.35;;;3.90;;
39442;SDS011;25147;52.142;9.960;2023-11-19T13:23:24;16.55;;;3.90;;
39442;SDS011;25147;52.142;9.960;2023-11-19T13:25:51;13.20;;;4.35;;
39442;SDS011;25147;52.142;9.960;2023-11-19T13:28:19;17.75;;;4.10;;
39442;SDS011;25147;52.142;9.960;2023-11-19T13:30:47;15.05;;;4.32;;
39442;SDS011;25147;52.142;9.960;2023-11-19T13:33:14;15.98;;;4.55;;
39442;SDS011;25147;52.142;9.960;2023-11-19T13:35:44;21.35;;;4.63;;
39442;SDS011;25147;52.142;9.960;2023-11-19T13:38:11;18.73;;;4.93;;
39442;SDS011;25147;52.142;9.960;2023-11-19T13:40:37;16.13;;;3.92;;
39442;SDS011;25147;52.142;9.960;2023-11-19T13:43:04;15.85;;;4.05;;
39442;SDS011;25147;52.142;9.960;2023-11-19T13:45:34;22.15;;;5.22;;
39442;SDS011;25147;52.142;9.960;2023-11-19T13:48:01;26.95;;;6.15;;
39442;SDS011;25147;52.142;9.960;2023-11-19T13:50:27;16.65;;;5.25;;
39442;SDS011;25147;52.142;9.960;2023-11-19T13:52:54;20.65;;;4.97;;
39442;SDS011;25147;52.142;9.960;2023-11-19T13:55:21;19.50;;;4.45;;
39442;SDS011;25147;52.142;9.960;2023-11-19T13:57:48;27.70;;;5.30;;
39442;SDS011;25147;52.142;9.960;2023-11-19T14:00:15;17.33;;;4.97;;
39442;SDS011;25147;52.142;9.960;2023-11-19T14:02:45;25.58;;;5.18;;
39442;SDS011;25147;52.142;9.960;2023-11-19T14:05:13;19.85;;;4.95;;
39442;SDS011;25147;52.142;9.960;2023-11-19T14:07:42;19.65;;;4.97;;
39442;SDS011;25147;52.142;9.960;2023-11-19T14:10:11;20.02;;;5.43;;
39442;SDS011;25147;52.142;9.960;2023-11-19T14:12:38;18.30;;;6.50;;
39442;SDS011;25147;52.142;9.960;2023-11-19T14:15:06;14.85;;;4.35;;
39442;SDS011;25147;52.142;9.960;2023-11-19T14:17:35;21.83;;;5.57;;
39442;SDS011;25147;52.142;9.960;2023-11-19T14:20:04;26.25;;;4.50;;
39442;SDS011;25147;52.142;9.960;2023-11-19T14:22:38;26.67;;;5.32;;
39442;SDS011;25147;52.142;9.960;2023-11-19T14:25:05;18.83;;;4.95;;
39442;SDS011;25147;52.142;9.960;2023-11-19T14:27:33;19.88;;;4.22;;
39442;SDS011;25147;52.142;9.960;2023-11-19T14:30:00;17.88;;;4.35;;
39442;SDS011;25147;52.142;9.960;2023-11-19T14:32:27;19.48;;;4.85;;
39442;SDS011;25147;52.142;9.960;2023-11-19T14:34:53;16.67;;;4.47;;
39442;SDS011;25147;52.142;9.960;2023-11-19T14:37:21;18.88;;;4.57;;
39442;SDS011;25147;52.142;9.960;2023-11-19T14:39:49;24.83;;;5.43;;
39442;SDS011;25147;52.142;9.960;2023-11-19T14:42:16;20.60;;;4.88;;
39442;SDS011;25147;52.142;9.960;2023-11-19T14:44:43;22.58;;;4.85;;
39442;SDS011;25147;52.142;9.960;2023-11-19T14:47:10;20.92;;;4.85;;
39442;SDS011;25147;52.142;9.960;2023-11-19T14:49:37;17.55;;;4.47;;
39442;SDS011;25147;52.142;9.960;2023-11-19T14:52:03;18.65;;;5.00;;